createdAt,value
2023-02-09T00:02:21.538Z,3.17
2023-02-09T00:04:49.874Z,4.32
2023-02-09T00:07:18.347Z,4.03
2023-02-09T00:09:47.283Z,2.42
2023-02-09T00:12:34.093Z,3.20
2023-02-09T00:15:02.488Z,2.65
2023-02-09T00:17:30.914Z,2.97
2023-02-09T00:19:59.262Z,3.38
2023-02-09T00:22:27.723Z,4.78
2023-02-09T00:24:57.349Z,4.07
2023-02-09T00:27:25.812Z,4.68
2023-02-09T00:29:54.127Z,4.30
2023-02-09T00:32:22.454Z,5.65
2023-02-09T00:34:50.846Z,4.55
2023-02-09T00:37:19.185Z,6.78
2023-02-09T00:39:47.626Z,5.75
2023-02-09T00:42:15.960Z,7.05
2023-02-09T00:44:44.399Z,7.43
2023-02-09T00:47:12.962Z,6.90
2023-02-09T00:49:41.393Z,5.72
2023-02-09T00:52:10.109Z,5.65
2023-02-09T00:54:38.834Z,5.95
2023-02-09T00:57:07.255Z,5.90
2023-02-09T00:59:36.838Z,6.68
2023-02-09T01:02:05.301Z,5.68
2023-02-09T01:04:34.387Z,4.80
2023-02-09T01:07:02.854Z,5.05
2023-02-09T01:09:31.349Z,6.38
2023-02-09T01:11:59.689Z,5.07
2023-02-09T01:14:28.047Z,5.85
2023-02-09T01:16:56.424Z,9.43
2023-02-09T01:19:24.810Z,6.13
2023-02-09T01:21:53.182Z,5.22
2023-02-09T01:24:21.676Z,7.25
2023-02-09T01:26:50.081Z,5.28
2023-02-09T01:29:20.508Z,7.38
2023-02-09T01:31:49.314Z,6.65
2023-02-09T01:34:19.692Z,6.70
2023-02-09T01:36:49.277Z,7.88
2023-02-09T01:39:17.955Z,5.90
2023-02-09T01:41:46.721Z,5.97
2023-02-09T01:44:18.078Z,7.82
2023-02-09T01:46:46.638Z,5.25
2023-02-09T01:49:27.561Z,7.32
2023-02-09T01:51:59.557Z,6.47
2023-02-09T01:54:35.597Z,6.65
2023-02-09T01:57:14.664Z,6.90
2023-02-09T01:59:46.326Z,6.78
2023-02-09T02:02:15.906Z,7.95
2023-02-09T02:04:46.497Z,7.68
2023-02-09T02:07:45.115Z,7.53
2023-02-09T02:10:13.610Z,6.00
2023-02-09T02:12:42.505Z,5.50
2023-02-09T02:15:12.809Z,7.68
2023-02-09T02:18:14.487Z,8.15
2023-02-09T02:21:10.151Z,6.32
2023-02-09T02:24:07.016Z,7.88
2023-02-09T02:26:35.325Z,6.40
2023-02-09T02:29:21.654Z,5.47
2023-02-09T02:32:10.126Z,7.22
2023-02-09T02:34:46.635Z,7.18
2023-02-09T02:37:25.132Z,6.80
2023-02-09T02:39:56.312Z,6.57
2023-02-09T02:42:49.318Z,7.20
2023-02-09T02:45:28.633Z,9.27
2023-02-09T02:48:02.067Z,6.68
2023-02-09T02:50:34.185Z,8.30
2023-02-09T02:53:06.384Z,6.82
2023-02-09T02:55:37.985Z,6.95
2023-02-09T02:58:10.570Z,7.57
2023-02-09T03:00:49.277Z,10.57
2023-02-09T03:03:27.784Z,9.05
2023-02-09T03:05:56.647Z,7.82
2023-02-09T03:08:25.097Z,6.72
2023-02-09T03:10:53.551Z,7.47
2023-02-09T03:13:38.878Z,7.40
2023-02-09T03:16:07.214Z,6.93
2023-02-09T03:19:12.284Z,8.93
2023-02-09T03:21:59.287Z,7.55
2023-02-09T03:24:38.586Z,7.90
2023-02-09T03:27:24.931Z,8.07
2023-02-09T03:29:57.456Z,7.10
2023-02-09T03:32:27.000Z,7.97
2023-02-09T03:34:56.685Z,8.30
2023-02-09T03:37:25.426Z,9.45
2023-02-09T03:39:53.837Z,8.80
2023-02-09T03:42:22.284Z,11.13
2023-02-09T03:44:50.622Z,8.13
2023-02-09T03:47:18.930Z,10.35
2023-02-09T03:49:47.245Z,7.72
2023-02-09T03:52:17.225Z,8.05
2023-02-09T03:54:45.947Z,10.93
2023-02-09T03:57:14.237Z,10.23
2023-02-09T03:59:42.960Z,9.00
2023-02-09T04:02:12.321Z,9.93
2023-02-09T04:04:40.677Z,10.02
2023-02-09T04:07:09.248Z,9.48
2023-02-09T04:09:38.499Z,8.02
2023-02-09T04:12:07.071Z,7.35
2023-02-09T04:14:35.486Z,9.27
2023-02-09T04:17:03.971Z,8.98
2023-02-09T04:19:32.247Z,8.07
2023-02-09T04:22:01.841Z,9.18
2023-02-09T04:24:30.430Z,7.28
2023-02-09T04:26:58.821Z,7.03
2023-02-09T04:29:27.802Z,8.57
2023-02-09T04:31:56.879Z,8.98
2023-02-09T04:34:25.533Z,9.85
2023-02-09T04:36:53.849Z,7.45
2023-02-09T04:39:22.186Z,5.80
2023-02-09T04:41:50.513Z,9.15
2023-02-09T04:44:18.845Z,6.75
2023-02-09T04:46:47.405Z,7.35
2023-02-09T04:49:15.729Z,7.63
2023-02-09T04:51:44.051Z,10.57
2023-02-09T04:54:12.348Z,9.18
2023-02-09T04:56:40.655Z,8.95
2023-02-09T04:59:28.680Z,6.50
2023-02-09T05:01:56.983Z,7.82
2023-02-09T05:04:25.296Z,6.95
2023-02-09T05:06:53.579Z,7.28
2023-02-09T05:09:21.893Z,7.78
2023-02-09T05:11:50.271Z,8.52
2023-02-09T05:14:18.546Z,8.93
2023-02-09T05:16:47.113Z,6.32
2023-02-09T05:19:15.457Z,7.25
2023-02-09T05:21:43.737Z,6.72
2023-02-09T05:24:12.073Z,6.35
2023-02-09T05:26:40.420Z,6.97
2023-02-09T05:29:08.725Z,7.65
2023-02-09T05:31:37.143Z,6.07
2023-02-09T05:34:05.433Z,6.15
2023-02-09T05:36:33.806Z,7.22
2023-02-09T05:39:02.099Z,8.18
2023-02-09T05:41:48.655Z,6.43
2023-02-09T05:44:17.017Z,7.60
2023-02-09T05:46:45.513Z,6.07
2023-02-09T05:49:13.843Z,8.95
2023-02-09T05:51:42.233Z,6.63
2023-02-09T05:54:10.478Z,6.18
2023-02-09T05:56:39.065Z,6.10
2023-02-09T05:59:07.605Z,5.82
2023-02-09T06:01:36.039Z,7.38
2023-02-09T06:04:04.393Z,6.85
2023-02-09T06:06:32.820Z,7.43
2023-02-09T06:09:01.124Z,5.72
2023-02-09T06:11:29.496Z,10.35
2023-02-09T06:13:57.774Z,16.60
2023-02-09T06:16:26.338Z,15.32
2023-02-09T06:18:54.665Z,13.30
2023-02-09T06:21:23.219Z,12.93
2023-02-09T06:23:51.570Z,13.95
2023-02-09T06:26:20.585Z,9.00
2023-02-09T06:28:49.097Z,8.52
2023-02-09T06:31:17.536Z,8.23
2023-02-09T06:33:46.187Z,8.80
2023-02-09T06:36:14.479Z,9.52
2023-02-09T06:38:43.892Z,7.40
2023-02-09T06:41:12.583Z,9.70
2023-02-09T06:43:40.904Z,8.93
2023-02-09T06:46:14.264Z,9.45
2023-02-09T06:48:42.687Z,8.32
2023-02-09T06:51:13.335Z,8.75
2023-02-09T06:53:43.637Z,6.70
2023-02-09T06:56:13.480Z,7.28
2023-02-09T06:58:42.748Z,7.32
2023-02-09T07:01:14.123Z,8.25
2023-02-09T07:03:43.376Z,8.50
2023-02-09T07:06:17.551Z,7.63
2023-02-09T07:08:47.103Z,10.07
2023-02-09T07:11:17.705Z,7.20
2023-02-09T07:13:47.485Z,7.85
2023-02-09T07:16:16.571Z,7.45
2023-02-09T07:18:45.483Z,6.75
2023-02-09T07:21:20.829Z,7.15
2023-02-09T07:23:50.074Z,8.50
2023-02-09T07:26:19.479Z,10.13
2023-02-09T07:28:47.847Z,7.82
2023-02-09T07:31:17.680Z,6.20
2023-02-09T07:33:46.728Z,11.02
2023-02-09T07:36:17.481Z,7.65
2023-02-09T07:38:46.555Z,7.65
2023-02-09T07:41:18.975Z,6.30
2023-02-09T07:43:47.637Z,8.07
2023-02-09T07:46:18.194Z,6.50
2023-02-09T07:48:46.956Z,8.02
2023-02-09T07:51:26.355Z,6.13
2023-02-09T07:53:54.930Z,7.82
2023-02-09T07:56:24.509Z,8.55
2023-02-09T07:58:53.656Z,8.02
2023-02-09T08:01:23.036Z,7.07
2023-02-09T08:03:51.985Z,5.10
2023-02-09T08:06:42.175Z,6.80
2023-02-09T08:09:12.653Z,7.88
2023-02-09T08:11:47.165Z,7.47
2023-02-09T08:14:20.781Z,8.48
2023-02-09T08:16:50.940Z,10.52
2023-02-09T08:19:25.467Z,7.57
2023-02-09T08:21:53.904Z,7.43
2023-02-09T08:24:22.633Z,6.85
2023-02-09T08:26:51.142Z,5.93
2023-02-09T08:29:19.591Z,6.38
2023-02-09T08:31:47.947Z,8.52
2023-02-09T08:34:16.264Z,6.53
2023-02-09T08:36:44.722Z,6.95
2023-02-09T08:39:13.193Z,5.97
2023-02-09T08:41:41.608Z,8.27
2023-02-09T08:44:09.857Z,6.43
2023-02-09T08:46:38.357Z,9.35
2023-02-09T08:49:06.671Z,7.28
2023-02-09T08:51:34.984Z,6.65
2023-02-09T08:54:03.278Z,5.63
2023-02-09T08:56:31.547Z,9.02
2023-02-09T08:58:59.869Z,6.72
2023-02-09T09:01:28.279Z,6.80
2023-02-09T09:03:57.076Z,5.32
2023-02-09T09:06:25.393Z,7.32
2023-02-09T09:08:53.708Z,6.05
2023-02-09T09:11:21.998Z,5.68
2023-02-09T09:13:50.427Z,7.97
2023-02-09T09:16:23.562Z,6.00
2023-02-09T09:18:52.067Z,7.07
2023-02-09T09:21:21.188Z,5.43
2023-02-09T09:23:50.001Z,4.88
2023-02-09T09:26:18.817Z,5.38
2023-02-09T09:28:52.085Z,7.63
2023-02-09T09:31:21.458Z,5.22
2023-02-09T09:33:49.884Z,6.38
2023-02-09T09:36:18.278Z,4.85
2023-02-09T09:38:46.641Z,4.35
2023-02-09T09:41:26.647Z,5.90
2023-02-09T09:43:56.102Z,4.55
2023-02-09T09:46:40.419Z,4.78
2023-02-09T09:49:17.857Z,6.80
2023-02-09T09:51:54.497Z,4.68
2023-02-09T09:54:26.780Z,6.20
2023-02-09T09:56:55.630Z,5.57
2023-02-09T09:59:44.124Z,4.90
2023-02-09T10:02:28.184Z,4.93
2023-02-09T10:05:21.881Z,7.13
2023-02-09T10:08:00.397Z,7.05
2023-02-09T10:11:09.912Z,7.88
2023-02-09T10:13:40.814Z,6.10
2023-02-09T10:16:28.182Z,4.70
2023-02-09T10:18:59.225Z,6.35
2023-02-09T10:21:30.828Z,4.90
2023-02-09T10:24:02.251Z,3.83
2023-02-09T10:26:39.255Z,7.38
2023-02-09T10:29:14.737Z,6.07
2023-02-09T10:32:10.586Z,4.00
2023-02-09T10:34:46.691Z,5.20
2023-02-09T10:37:36.405Z,4.20
2023-02-09T10:40:17.140Z,4.43
2023-02-09T10:43:08.200Z,3.88
2023-02-09T10:45:43.110Z,4.55
2023-02-09T10:48:14.174Z,5.72
2023-02-09T10:50:53.017Z,4.00
2023-02-09T10:54:01.257Z,4.63
2023-02-09T10:56:46.586Z,7.53
2023-02-09T10:59:24.245Z,3.80
2023-02-09T11:01:59.710Z,5.32
2023-02-09T11:04:49.579Z,5.18
2023-02-09T11:07:23.202Z,5.47
2023-02-09T11:09:53.204Z,4.13
2023-02-09T11:12:23.918Z,4.18
2023-02-09T11:14:52.308Z,4.60
2023-02-09T11:17:46.905Z,6.53
2023-02-09T11:20:32.996Z,4.00
2023-02-09T11:23:14.747Z,6.07
2023-02-09T11:25:51.422Z,4.88
2023-02-09T11:28:52.811Z,5.63
2023-02-09T11:32:02.576Z,5.57
2023-02-09T11:34:55.871Z,3.78
2023-02-09T11:37:44.153Z,5.93
2023-02-09T11:40:27.647Z,5.00
2023-02-09T11:43:14.764Z,5.30
2023-02-09T11:45:59.870Z,4.63
2023-02-09T11:51:16.436Z,4.53
2023-02-09T11:54:04.297Z,6.00
2023-02-09T11:56:50.804Z,4.20
2023-02-09T11:59:48.675Z,6.07
2023-02-09T12:02:48.383Z,3.88
2023-02-09T12:05:20.884Z,5.90
2023-02-09T12:08:26.020Z,5.68
2023-02-09T12:11:19.102Z,7.43
2023-02-09T12:14:36.845Z,5.28
2023-02-09T12:17:43.215Z,4.75
2023-02-09T12:20:47.152Z,5.63
2023-02-09T12:23:40.321Z,7.05
2023-02-09T12:26:14.189Z,5.18
2023-02-09T12:28:50.479Z,4.13
2023-02-09T12:31:20.676Z,5.75
2023-02-09T12:33:48.990Z,5.50
2023-02-09T12:36:17.286Z,5.00
2023-02-09T12:38:55.941Z,3.72
2023-02-09T12:41:27.724Z,4.28
2023-02-09T12:44:12.031Z,8.25
2023-02-09T12:46:46.647Z,4.95
2023-02-09T12:51:55.699Z,5.47
2023-02-09T12:54:52.426Z,4.57
2023-02-09T12:57:20.713Z,4.82
2023-02-09T12:59:54.446Z,5.57
2023-02-09T13:02:38.724Z,4.53
2023-02-09T13:05:22.847Z,5.38
2023-02-09T13:07:56.817Z,4.25
2023-02-09T13:10:48.762Z,7.28
2023-02-09T13:13:39.080Z,3.80
2023-02-09T13:16:24.415Z,3.65
2023-02-09T13:19:11.155Z,5.30
2023-02-09T13:21:54.474Z,4.28
2023-02-09T13:24:49.933Z,3.67
2023-02-09T13:27:21.187Z,5.05
2023-02-09T13:29:57.138Z,5.22
2023-02-09T13:32:33.963Z,6.10
2023-02-09T13:35:22.527Z,3.45
2023-02-09T13:37:55.540Z,3.58
2023-02-09T13:40:31.691Z,4.18
2023-02-09T13:43:11.869Z,3.70
2023-02-09T13:45:50.157Z,4.45
2023-02-09T13:48:30.695Z,3.78
2023-02-09T13:51:01.918Z,5.20
2023-02-09T13:53:33.034Z,5.80
2023-02-09T13:56:02.248Z,4.93
2023-02-09T13:58:36.422Z,3.83
2023-02-09T14:01:08.980Z,6.47
2023-02-09T14:03:58.382Z,4.13
2023-02-09T14:06:47.276Z,4.78
2023-02-09T14:09:23.870Z,3.75
2023-02-09T14:11:56.622Z,5.47
2023-02-09T14:14:29.475Z,3.53
2023-02-09T14:17:25.702Z,3.22
2023-02-09T14:19:55.991Z,4.05
2023-02-09T14:22:36.344Z,3.83
2023-02-09T14:25:31.852Z,5.32
2023-02-09T14:30:32.964Z,4.53
2023-02-09T14:33:04.305Z,3.67
2023-02-09T14:35:39.325Z,3.88
2023-02-09T14:38:27.423Z,4.05
2023-02-09T14:40:56.101Z,4.25
2023-02-09T14:43:28.051Z,3.78
2023-02-09T14:46:02.174Z,4.70
2023-02-09T14:48:32.400Z,4.80
2023-02-09T14:51:03.802Z,3.53
2023-02-09T14:53:34.173Z,4.78
2023-02-09T14:56:02.444Z,4.88
2023-02-09T14:58:32.812Z,3.42
2023-02-09T15:01:03.394Z,4.18
2023-02-09T15:03:31.686Z,3.65
2023-02-09T15:06:03.423Z,5.90
2023-02-09T15:08:34.690Z,7.35
2023-02-09T15:11:29.748Z,5.32
2023-02-09T15:14:05.271Z,4.15
2023-02-09T15:16:33.858Z,4.95
2023-02-09T15:19:04.892Z,4.07
2023-02-09T15:21:33.435Z,5.00
2023-02-09T15:24:01.716Z,5.20
2023-02-09T15:26:30.809Z,4.80
2023-02-09T15:28:59.077Z,7.20
2023-02-09T15:31:29.494Z,4.22
2023-02-09T15:33:57.791Z,6.28
2023-02-09T15:36:27.511Z,3.92
2023-02-09T15:38:55.832Z,5.55
2023-02-09T15:41:42.446Z,5.60
2023-02-09T15:44:39.536Z,4.53
2023-02-09T15:47:26.135Z,8.70
2023-02-09T15:49:54.459Z,7.25
2023-02-09T15:52:22.774Z,4.72
2023-02-09T15:54:53.469Z,7.15
2023-02-09T15:57:21.769Z,6.22
2023-02-09T15:59:52.530Z,5.95
2023-02-09T16:02:20.866Z,7.72
2023-02-09T16:04:49.980Z,5.65
2023-02-09T16:07:26.686Z,4.95
2023-02-09T16:09:55.251Z,7.25
2023-02-09T16:12:23.554Z,4.80
2023-02-09T16:14:53.213Z,5.13
2023-02-09T16:17:22.148Z,5.20
2023-02-09T16:19:50.668Z,7.82
2023-02-09T16:22:23.552Z,5.65
2023-02-09T16:24:52.311Z,6.82
2023-02-09T16:27:28.786Z,7.65
2023-02-09T16:30:00.519Z,6.10
2023-02-09T16:32:29.529Z,4.90
2023-02-09T16:35:07.240Z,5.15
2023-02-09T16:37:44.710Z,4.25
2023-02-09T16:40:31.804Z,5.35
2023-02-09T16:43:02.397Z,5.57
2023-02-09T16:45:35.899Z,5.43
2023-02-09T16:48:04.443Z,4.47
2023-02-09T16:50:36.547Z,3.72
2023-02-09T16:53:16.018Z,3.63
2023-02-09T16:55:49.319Z,6.22
2023-02-09T16:58:19.369Z,4.25
2023-02-09T17:00:48.076Z,5.15
2023-02-09T17:03:21.930Z,5.72
2023-02-09T17:05:53.585Z,3.33
2023-02-09T17:08:25.032Z,3.28
2023-02-09T17:10:55.815Z,5.50
2023-02-09T17:13:24.466Z,6.32
2023-02-09T17:15:59.542Z,5.25
2023-02-09T17:18:34.318Z,5.88
2023-02-09T17:23:32.423Z,5.32
2023-02-09T17:26:01.051Z,5.75
2023-02-09T17:28:29.915Z,6.32
2023-02-09T17:31:01.855Z,5.38
2023-02-09T17:33:34.435Z,6.57
2023-02-09T17:36:25.301Z,7.90
2023-02-09T17:38:52.794Z,8.40
2023-02-09T17:41:27.799Z,6.20
2023-02-09T17:44:10.548Z,6.07
2023-02-09T17:46:46.771Z,7.15
2023-02-09T17:49:15.232Z,8.07
2023-02-09T17:51:47.148Z,10.38
2023-02-09T17:54:18.638Z,6.88
2023-02-09T17:56:47.760Z,10.45
2023-02-09T17:59:20.449Z,7.22
2023-02-09T18:01:55.949Z,7.03
2023-02-09T18:04:28.140Z,6.40
2023-02-09T18:06:57.815Z,7.82
2023-02-09T18:09:26.250Z,6.40
2023-02-09T18:11:59.347Z,5.70
2023-02-09T18:14:29.547Z,9.13
2023-02-09T18:16:58.465Z,7.45
2023-02-09T18:19:27.666Z,7.45
2023-02-09T18:21:59.345Z,8.32
2023-02-09T18:24:32.012Z,9.77
2023-02-09T18:27:00.622Z,7.25
2023-02-09T18:29:31.514Z,6.63
2023-02-09T18:32:02.402Z,10.95
2023-02-09T18:34:30.873Z,10.68
2023-02-09T18:36:59.243Z,7.05
2023-02-09T18:39:27.649Z,6.88
2023-02-09T18:41:56.356Z,8.85
2023-02-09T18:44:29.642Z,8.85
2023-02-09T18:47:01.377Z,7.10
2023-02-09T18:49:30.363Z,10.35
2023-02-09T18:51:59.782Z,7.95
2023-02-09T18:54:29.690Z,9.32
2023-02-09T18:56:58.150Z,8.05
2023-02-09T18:59:33.800Z,8.82
2023-02-09T19:02:02.243Z,9.65
2023-02-09T19:04:30.677Z,10.45
2023-02-09T19:06:59.551Z,9.57
2023-02-09T19:09:27.901Z,11.20
2023-02-09T19:11:56.255Z,8.20
2023-02-09T19:14:39.753Z,8.75
2023-02-09T19:17:11.095Z,7.20
2023-02-09T19:19:39.825Z,8.10
2023-02-09T19:22:08.535Z,13.27
2023-02-09T19:24:36.990Z,8.68
2023-02-09T19:27:07.566Z,8.95
2023-02-09T19:29:36.466Z,9.70
2023-02-09T19:32:06.512Z,11.35
2023-02-09T19:34:40.622Z,11.45
2023-02-09T19:37:09.507Z,9.60
2023-02-09T19:39:39.627Z,9.77
2023-02-09T19:42:10.423Z,13.82
2023-02-09T19:44:38.847Z,11.25
2023-02-09T19:47:07.161Z,9.73
2023-02-09T19:49:35.451Z,8.73
2023-02-09T19:52:03.761Z,8.35
2023-02-09T19:54:32.666Z,9.05
2023-02-09T19:57:01.280Z,13.63
2023-02-09T19:59:29.523Z,12.25
2023-02-09T20:01:58.052Z,13.80
2023-02-09T20:04:26.706Z,11.85
2023-02-09T20:06:55.061Z,10.13
2023-02-09T20:09:23.457Z,11.75
2023-02-09T20:11:51.918Z,11.45
2023-02-09T20:14:20.246Z,12.10
2023-02-09T20:16:48.563Z,12.38
2023-02-09T20:19:16.902Z,12.07
2023-02-09T20:21:45.327Z,12.25
2023-02-09T20:24:15.318Z,9.90
2023-02-09T20:26:46.673Z,13.40
2023-02-09T20:29:17.592Z,12.35
2023-02-09T20:31:46.672Z,11.77
2023-02-09T20:34:16.505Z,10.05
2023-02-09T20:36:46.923Z,9.18
2023-02-09T20:39:19.648Z,12.25
2023-02-09T20:42:12.551Z,10.18
2023-02-09T20:44:59.149Z,8.80
2023-02-09T20:47:27.595Z,9.13
2023-02-09T20:50:00.805Z,7.38
2023-02-09T20:52:30.877Z,9.98
2023-02-09T20:54:59.230Z,9.82
2023-02-09T20:57:31.529Z,6.65
2023-02-09T21:00:03.022Z,6.50
2023-02-09T21:02:31.370Z,7.57
2023-02-09T21:05:00.448Z,7.95
2023-02-09T21:07:29.110Z,6.85
2023-02-09T21:09:57.476Z,6.68
2023-02-09T21:12:25.995Z,7.05
2023-02-09T21:14:54.464Z,5.55
2023-02-09T21:17:23.405Z,6.18
2023-02-09T21:19:51.715Z,8.80
2023-02-09T21:22:20.074Z,6.63
2023-02-09T21:24:48.369Z,8.73
2023-02-09T21:27:16.724Z,5.63
2023-02-09T21:29:45.474Z,5.50
2023-02-09T21:32:13.775Z,7.85
2023-02-09T21:34:43.549Z,8.63
2023-02-09T21:37:13.793Z,5.47
2023-02-09T21:39:42.975Z,5.68
2023-02-09T21:42:26.799Z,4.78
2023-02-09T21:44:56.022Z,6.13
2023-02-09T21:47:29.066Z,5.25
2023-02-09T21:49:58.418Z,6.55
2023-02-09T21:52:27.489Z,4.82
2023-02-09T21:54:55.768Z,4.93
2023-02-09T21:57:24.618Z,5.70
2023-02-09T21:59:53.178Z,7.18
2023-02-09T22:02:23.513Z,7.40
2023-02-09T22:04:51.869Z,6.28
2023-02-09T22:07:20.185Z,9.23
2023-02-09T22:09:48.540Z,6.82
2023-02-09T22:12:17.070Z,6.07
2023-02-09T22:14:45.625Z,7.05
2023-02-09T22:17:13.936Z,5.93
2023-02-09T22:19:42.241Z,5.70
2023-02-09T22:22:11.601Z,7.00
2023-02-09T22:24:39.908Z,4.13
2023-02-09T22:27:08.195Z,5.75
2023-02-09T22:29:36.478Z,7.25
2023-02-09T22:32:04.854Z,5.57
2023-02-09T22:34:33.186Z,6.80
2023-02-09T22:37:01.534Z,4.78
2023-02-09T22:39:29.858Z,5.05
2023-02-09T22:42:01.725Z,5.25
2023-02-09T22:44:31.259Z,4.22
2023-02-09T22:46:59.638Z,4.68
2023-02-09T22:49:27.972Z,5.13
2023-02-09T22:51:56.283Z,4.35
2023-02-09T22:54:24.636Z,4.63
2023-02-09T22:56:53.029Z,5.20
2023-02-09T22:59:21.326Z,6.00
2023-02-09T23:01:49.664Z,4.65
2023-02-09T23:04:18.055Z,5.18
2023-02-09T23:06:47.225Z,4.93
2023-02-09T23:09:16.018Z,4.47
2023-02-09T23:11:45.514Z,5.72
2023-02-09T23:14:14.552Z,5.70
2023-02-09T23:16:44.605Z,7.00
2023-02-09T23:19:17.880Z,4.80
2023-02-09T23:21:49.750Z,4.78
2023-02-09T23:24:23.078Z,5.32
2023-02-09T23:26:51.981Z,3.78
2023-02-09T23:29:20.776Z,3.67
2023-02-09T23:31:49.613Z,3.97
2023-02-09T23:34:21.076Z,2.75
2023-02-09T23:36:49.862Z,4.63
2023-02-09T23:39:20.731Z,4.28
2023-02-09T23:41:49.250Z,4.18
2023-02-09T23:44:17.574Z,5.03
2023-02-09T23:46:46.808Z,3.67
2023-02-09T23:49:15.220Z,2.50
2023-02-09T23:51:47.407Z,3.58
2023-02-09T23:54:15.930Z,3.50
2023-02-09T23:56:46.463Z,5.47
2023-02-09T23:59:17.183Z,3.65
